sensor_id;sensor_type;location;lat;lon;timestamp;P1;durP1;ratioP1;P2;durP2;ratioP2
40847;SDS011;26570;50.962;5.340;2024-03-07T00:01:42;95.27;;;37.70;;
40847;SDS011;26570;50.962;5.340;2024-03-07T00:04:26;80.80;;;34.77;;
40847;SDS011;26570;50.962;5.340;2024-03-07T00:07:14;87.60;;;36.43;;
40847;SDS011;26570;50.962;5.340;2024-03-07T00:10:00;95.77;;;38.30;;
40847;SDS011;26570;50.962;5.340;2024-03-07T00:12:48;97.27;;;36.87;;
40847;SDS011;26570;50.962;5.340;2024-03-07T00:15:33;94.80;;;37.47;;
40847;SDS011;26570;50.962;5.340;2024-03-07T00:18:18;92.50;;;37.27;;
40847;SDS011;26570;50.962;5.340;2024-03-07T00:21:03;86.93;;;36.20;;
40847;SDS011;26570;50.962;5.340;2024-03-07T00:23:49;102.33;;;38.67;;
40847;SDS011;26570;50.962;5.340;2024-03-07T00:26:34;89.13;;;37.03;;
40847;SDS011;26570;50.962;5.340;2024-03-07T00:29:20;113.87;;;43.00;;
40847;SDS011;26570;50.962;5.340;2024-03-07T00:32:05;117.07;;;45.27;;
40847;SDS011;26570;50.962;5.340;2024-03-07T00:34:55;138.57;;;48.63;;
40847;SDS011;26570;50.962;5.340;2024-03-07T00:37:43;125.60;;;46.30;;
40847;SDS011;26570;50.962;5.340;2024-03-07T00:40:29;132.63;;;49.23;;
40847;SDS011;26570;50.962;5.340;2024-03-07T00:43:15;122.73;;;46.27;;
40847;SDS011;26570;50.962;5.340;2024-03-07T00:46:00;135.23;;;48.83;;
40847;SDS011;26570;50.962;5.340;2024-03-07T00:48:46;121.13;;;46.20;;
40847;SDS011;26570;50.962;5.340;2024-03-07T00:51:31;129.27;;;47.27;;
40847;SDS011;26570;50.962;5.340;2024-03-07T00:54:16;135.13;;;48.60;;
40847;SDS011;26570;50.962;5.340;2024-03-07T00:57:02;147.77;;;50.13;;
40847;SDS011;26570;50.962;5.340;2024-03-07T00:59:48;146.23;;;49.67;;
40847;SDS011;26570;50.962;5.340;2024-03-07T01:02:34;143.93;;;49.83;;
40847;SDS011;26570;50.962;5.340;2024-03-07T01:05:19;138.20;;;48.23;;
40847;SDS011;26570;50.962;5.340;2024-03-07T01:08:05;136.20;;;47.83;;
40847;SDS011;26570;50.962;5.340;2024-03-07T01:10:51;150.60;;;51.47;;
40847;SDS011;26570;50.962;5.340;2024-03-07T01:13:37;138.97;;;49.43;;
40847;SDS011;26570;50.962;5.340;2024-03-07T01:16:23;142.30;;;49.07;;
40847;SDS011;26570;50.962;5.340;2024-03-07T01:19:08;137.43;;;47.17;;
40847;SDS011;26570;50.962;5.340;2024-03-07T01:21:53;141.07;;;47.97;;
40847;SDS011;26570;50.962;5.340;2024-03-07T01:24:39;135.47;;;47.37;;
40847;SDS011;26570;50.962;5.340;2024-03-07T01:27:24;142.40;;;48.73;;
40847;SDS011;26570;50.962;5.340;2024-03-07T01:30:10;136.03;;;46.77;;
40847;SDS011;26570;50.962;5.340;2024-03-07T01:32:56;140.43;;;47.40;;
40847;SDS011;26570;50.962;5.340;2024-03-07T01:35:41;143.90;;;48.60;;
40847;SDS011;26570;50.962;5.340;2024-03-07T01:38:27;146.30;;;48.80;;
40847;SDS011;26570;50.962;5.340;2024-03-07T01:41:12;141.37;;;46.53;;
40847;SDS011;26570;50.962;5.340;2024-03-07T01:43:58;140.37;;;46.87;;
40847;SDS011;26570;50.962;5.340;2024-03-07T01:47:05;137.27;;;46.63;;
40847;SDS011;26570;50.962;5.340;2024-03-07T01:49:51;143.13;;;47.40;;
40847;SDS011;26570;50.962;5.340;2024-03-07T01:52:39;166.20;;;51.40;;
40847;SDS011;26570;50.962;5.340;2024-03-07T01:55:26;134.93;;;44.57;;
40847;SDS011;26570;50.962;5.340;2024-03-07T01:58:12;150.93;;;44.47;;
40847;SDS011;26570;50.962;5.340;2024-03-07T02:01:01;154.67;;;49.20;;
40847;SDS011;26570;50.962;5.340;2024-03-07T02:03:47;157.93;;;47.10;;
40847;SDS011;26570;50.962;5.340;2024-03-07T02:06:33;164.20;;;49.70;;
40847;SDS011;26570;50.962;5.340;2024-03-07T02:09:19;153.47;;;47.00;;
40847;SDS011;26570;50.962;5.340;2024-03-07T02:12:05;160.23;;;51.17;;
40847;SDS011;26570;50.962;5.340;2024-03-07T02:14:51;181.17;;;50.60;;
40847;SDS011;26570;50.962;5.340;2024-03-07T02:17:36;189.67;;;56.57;;
40847;SDS011;26570;50.962;5.340;2024-03-07T02:20:45;182.77;;;51.47;;
40847;SDS011;26570;50.962;5.340;2024-03-07T02:23:31;189.00;;;51.57;;
40847;SDS011;26570;50.962;5.340;2024-03-07T02:26:16;181.07;;;52.27;;
40847;SDS011;26570;50.962;5.340;2024-03-07T02:29:24;151.10;;;45.03;;
40847;SDS011;26570;50.962;5.340;2024-03-07T02:32:10;237.27;;;48.93;;
40847;SDS011;26570;50.962;5.340;2024-03-07T02:35:18;168.47;;;48.37;;
40847;SDS011;26570;50.962;5.340;2024-03-07T02:38:05;182.17;;;49.53;;
40847;SDS011;26570;50.962;5.340;2024-03-07T02:40:50;216.63;;;50.90;;
40847;SDS011;26570;50.962;5.340;2024-03-07T02:43:36;160.77;;;48.73;;
40847;SDS011;26570;50.962;5.340;2024-03-07T02:46:22;183.13;;;49.50;;
40847;SDS011;26570;50.962;5.340;2024-03-07T02:49:30;174.73;;;50.67;;
40847;SDS011;26570;50.962;5.340;2024-03-07T02:52:15;177.23;;;49.87;;
40847;SDS011;26570;50.962;5.340;2024-03-07T02:55:28;198.63;;;54.00;;
40847;SDS011;26570;50.962;5.340;2024-03-07T02:58:14;201.83;;;52.60;;
40847;SDS011;26570;50.962;5.340;2024-03-07T03:01:00;195.83;;;54.87;;
40847;SDS011;26570;50.962;5.340;2024-03-07T03:04:12;170.77;;;51.23;;
40847;SDS011;26570;50.962;5.340;2024-03-07T03:07:01;210.20;;;53.43;;
40847;SDS011;26570;50.962;5.340;2024-03-07T03:09:47;190.10;;;52.50;;
40847;SDS011;26570;50.962;5.340;2024-03-07T03:12:33;198.87;;;53.27;;
40847;SDS011;26570;50.962;5.340;2024-03-07T03:15:18;228.60;;;58.07;;
40847;SDS011;26570;50.962;5.340;2024-03-07T03:18:04;212.03;;;57.20;;
40847;SDS011;26570;50.962;5.340;2024-03-07T03:20:49;228.83;;;56.33;;
40847;SDS011;26570;50.962;5.340;2024-03-07T03:23:37;227.90;;;56.40;;
40847;SDS011;26570;50.962;5.340;2024-03-07T03:26:24;228.57;;;58.50;;
40847;SDS011;26570;50.962;5.340;2024-03-07T03:29:10;222.33;;;56.23;;
40847;SDS011;26570;50.962;5.340;2024-03-07T03:31:56;213.07;;;53.93;;
40847;SDS011;26570;50.962;5.340;2024-03-07T03:34:42;214.63;;;53.57;;
40847;SDS011;26570;50.962;5.340;2024-03-07T03:37:27;205.83;;;58.60;;
40847;SDS011;26570;50.962;5.340;2024-03-07T03:40:15;214.77;;;55.73;;
40847;SDS011;26570;50.962;5.340;2024-03-07T03:43:01;224.23;;;60.00;;
40847;SDS011;26570;50.962;5.340;2024-03-07T03:45:46;218.63;;;55.33;;
40847;SDS011;26570;50.962;5.340;2024-03-07T03:48:32;238.17;;;58.77;;
40847;SDS011;26570;50.962;5.340;2024-03-07T03:51:20;226.40;;;57.07;;
40847;SDS011;26570;50.962;5.340;2024-03-07T03:54:28;216.27;;;55.90;;
40847;SDS011;26570;50.962;5.340;2024-03-07T03:57:37;201.77;;;52.83;;
40847;SDS011;26570;50.962;5.340;2024-03-07T04:00:24;216.90;;;55.10;;
40847;SDS011;26570;50.962;5.340;2024-03-07T04:03:09;229.87;;;57.27;;
40847;SDS011;26570;50.962;5.340;2024-03-07T04:05:54;235.43;;;54.07;;
40847;SDS011;26570;50.962;5.340;2024-03-07T04:08:40;223.17;;;54.60;;
40847;SDS011;26570;50.962;5.340;2024-03-07T04:11:25;260.43;;;57.03;;
40847;SDS011;26570;50.962;5.340;2024-03-07T04:14:11;215.40;;;55.53;;
40847;SDS011;26570;50.962;5.340;2024-03-07T04:16:56;214.80;;;55.37;;
40847;SDS011;26570;50.962;5.340;2024-03-07T04:19:41;242.87;;;54.57;;
40847;SDS011;26570;50.962;5.340;2024-03-07T04:22:27;226.23;;;54.00;;
40847;SDS011;26570;50.962;5.340;2024-03-07T04:25:12;238.00;;;51.17;;
40847;SDS011;26570;50.962;5.340;2024-03-07T04:27:59;232.60;;;55.87;;
40847;SDS011;26570;50.962;5.340;2024-03-07T04:30:44;238.63;;;56.77;;
40847;SDS011;26570;50.962;5.340;2024-03-07T04:33:29;236.03;;;53.57;;
40847;SDS011;26570;50.962;5.340;2024-03-07T04:36:14;238.03;;;55.07;;
40847;SDS011;26570;50.962;5.340;2024-03-07T04:38:59;227.60;;;54.47;;
40847;SDS011;26570;50.962;5.340;2024-03-07T04:41:45;216.57;;;54.47;;
40847;SDS011;26570;50.962;5.340;2024-03-07T04:44:35;254.63;;;54.87;;
40847;SDS011;26570;50.962;5.340;2024-03-07T04:47:46;241.38;;;55.75;;
40847;SDS011;26570;50.962;5.340;2024-03-07T04:50:32;286.90;;;58.33;;
40847;SDS011;26570;50.962;5.340;2024-03-07T04:53:17;375.00;;;61.77;;
40847;SDS011;26570;50.962;5.340;2024-03-07T04:56:03;393.40;;;65.07;;
40847;SDS011;26570;50.962;5.340;2024-03-07T04:58:48;382.47;;;62.20;;
40847;SDS011;26570;50.962;5.340;2024-03-07T05:01:34;448.13;;;63.03;;
40847;SDS011;26570;50.962;5.340;2024-03-07T05:04:19;444.17;;;64.37;;
40847;SDS011;26570;50.962;5.340;2024-03-07T05:07:04;439.27;;;64.40;;
40847;SDS011;26570;50.962;5.340;2024-03-07T05:09:50;454.33;;;65.60;;
40847;SDS011;26570;50.962;5.340;2024-03-07T05:12:35;456.53;;;63.57;;
40847;SDS011;26570;50.962;5.340;2024-03-07T05:15:21;464.00;;;64.03;;
40847;SDS011;26570;50.962;5.340;2024-03-07T05:18:10;419.20;;;67.63;;
40847;SDS011;26570;50.962;5.340;2024-03-07T05:20:56;372.23;;;62.30;;
40847;SDS011;26570;50.962;5.340;2024-03-07T05:23:52;442.13;;;65.20;;
40847;SDS011;26570;50.962;5.340;2024-03-07T05:26:59;406.93;;;63.13;;
40847;SDS011;26570;50.962;5.340;2024-03-07T05:29:44;434.27;;;65.17;;
40847;SDS011;26570;50.962;5.340;2024-03-07T05:32:30;321.33;;;63.23;;
40847;SDS011;26570;50.962;5.340;2024-03-07T05:35:15;399.53;;;63.63;;
40847;SDS011;26570;50.962;5.340;2024-03-07T05:38:00;362.37;;;62.83;;
40847;SDS011;26570;50.962;5.340;2024-03-07T05:40:48;313.13;;;62.87;;
40847;SDS011;26570;50.962;5.340;2024-03-07T05:43:34;352.67;;;61.33;;
40847;SDS011;26570;50.962;5.340;2024-03-07T05:46:19;343.87;;;62.77;;
40847;SDS011;26570;50.962;5.340;2024-03-07T05:49:08;332.27;;;62.77;;
40847;SDS011;26570;50.962;5.340;2024-03-07T05:51:53;315.97;;;61.83;;
40847;SDS011;26570;50.962;5.340;2024-03-07T05:54:39;321.33;;;64.10;;
40847;SDS011;26570;50.962;5.340;2024-03-07T05:57:24;296.27;;;58.43;;
40847;SDS011;26570;50.962;5.340;2024-03-07T06:00:10;316.30;;;62.13;;
40847;SDS011;26570;50.962;5.340;2024-03-07T06:02:59;308.33;;;61.17;;
40847;SDS011;26570;50.962;5.340;2024-03-07T06:05:44;290.37;;;59.53;;
40847;SDS011;26570;50.962;5.340;2024-03-07T06:08:32;305.57;;;64.33;;
40847;SDS011;26570;50.962;5.340;2024-03-07T06:11:18;293.83;;;60.87;;
40847;SDS011;26570;50.962;5.340;2024-03-07T06:14:05;299.47;;;61.90;;
40847;SDS011;26570;50.962;5.340;2024-03-07T06:16:51;269.83;;;61.10;;
40847;SDS011;26570;50.962;5.340;2024-03-07T06:20:06;265.30;;;59.23;;
40847;SDS011;26570;50.962;5.340;2024-03-07T06:28:18;247.07;;;56.47;;
40847;SDS011;26570;50.962;5.340;2024-03-07T06:31:06;276.53;;;59.63;;
40847;SDS011;26570;50.962;5.340;2024-03-07T06:33:54;261.43;;;57.80;;
40847;SDS011;26570;50.962;5.340;2024-03-07T06:36:39;251.07;;;59.27;;
40847;SDS011;26570;50.962;5.340;2024-03-07T06:39:25;256.17;;;58.37;;
40847;SDS011;26570;50.962;5.340;2024-03-07T06:42:11;242.33;;;58.33;;
40847;SDS011;26570;50.962;5.340;2024-03-07T06:44:57;250.83;;;57.33;;
40847;SDS011;26570;50.962;5.340;2024-03-07T06:47:42;217.87;;;56.07;;
40847;SDS011;26570;50.962;5.340;2024-03-07T06:50:27;234.07;;;54.27;;
40847;SDS011;26570;50.962;5.340;2024-03-07T06:53:12;230.10;;;56.00;;
40847;SDS011;26570;50.962;5.340;2024-03-07T06:55:58;244.90;;;58.20;;
40847;SDS011;26570;50.962;5.340;2024-03-07T06:58:43;208.93;;;57.53;;
40847;SDS011;26570;50.962;5.340;2024-03-07T07:01:30;217.47;;;55.70;;
40847;SDS011;26570;50.962;5.340;2024-03-07T07:04:15;206.53;;;57.03;;
40847;SDS011;26570;50.962;5.340;2024-03-07T07:07:00;202.23;;;56.23;;
40847;SDS011;26570;50.962;5.340;2024-03-07T07:09:45;201.23;;;56.37;;
40847;SDS011;26570;50.962;5.340;2024-03-07T07:12:52;181.37;;;56.43;;
40847;SDS011;26570;50.962;5.340;2024-03-07T07:15:39;172.77;;;56.17;;
40847;SDS011;26570;50.962;5.340;2024-03-07T07:18:24;146.13;;;53.13;;
40847;SDS011;26570;50.962;5.340;2024-03-07T07:21:09;146.70;;;50.00;;
40847;SDS011;26570;50.962;5.340;2024-03-07T07:23:54;127.93;;;52.13;;
40847;SDS011;26570;50.962;5.340;2024-03-07T07:26:39;121.43;;;50.43;;
40847;SDS011;26570;50.962;5.340;2024-03-07T07:29:25;118.73;;;48.17;;
40847;SDS011;26570;50.962;5.340;2024-03-07T07:32:11;100.37;;;46.73;;
40847;SDS011;26570;50.962;5.340;2024-03-07T07:34:56;94.70;;;43.97;;
40847;SDS011;26570;50.962;5.340;2024-03-07T07:37:42;84.03;;;42.87;;
40847;SDS011;26570;50.962;5.340;2024-03-07T07:40:35;83.65;;;43.65;;
40847;SDS011;26570;50.962;5.340;2024-03-07T07:43:20;73.83;;;39.93;;
40847;SDS011;26570;50.962;5.340;2024-03-07T07:46:05;80.50;;;39.50;;
40847;SDS011;26570;50.962;5.340;2024-03-07T07:48:50;75.90;;;39.77;;
40847;SDS011;26570;50.962;5.340;2024-03-07T07:51:36;72.23;;;39.00;;
40847;SDS011;26570;50.962;5.340;2024-03-07T07:54:21;72.03;;;38.53;;
40847;SDS011;26570;50.962;5.340;2024-03-07T07:57:05;69.07;;;37.40;;
40847;SDS011;26570;50.962;5.340;2024-03-07T07:59:51;65.47;;;36.30;;
40847;SDS011;26570;50.962;5.340;2024-03-07T08:02:36;65.33;;;35.33;;
40847;SDS011;26570;50.962;5.340;2024-03-07T08:05:22;66.30;;;36.40;;
40847;SDS011;26570;50.962;5.340;2024-03-07T08:08:08;59.70;;;35.53;;
40847;SDS011;26570;50.962;5.340;2024-03-07T08:10:55;58.90;;;34.17;;
40847;SDS011;26570;50.962;5.340;2024-03-07T08:13:40;61.97;;;34.83;;
40847;SDS011;26570;50.962;5.340;2024-03-07T08:16:25;58.57;;;35.63;;
40847;SDS011;26570;50.962;5.340;2024-03-07T08:19:11;55.97;;;32.90;;
40847;SDS011;26570;50.962;5.340;2024-03-07T08:22:18;57.77;;;34.50;;
40847;SDS011;26570;50.962;5.340;2024-03-07T08:25:03;52.33;;;32.33;;
40847;SDS011;26570;50.962;5.340;2024-03-07T08:27:53;51.00;;;30.87;;
40847;SDS011;26570;50.962;5.340;2024-03-07T08:30:40;57.30;;;32.07;;
40847;SDS011;26570;50.962;5.340;2024-03-07T08:33:47;56.70;;;32.10;;
40847;SDS011;26570;50.962;5.340;2024-03-07T08:36:32;52.17;;;31.27;;
40847;SDS011;26570;50.962;5.340;2024-03-07T08:39:39;53.23;;;32.03;;
40847;SDS011;26570;50.962;5.340;2024-03-07T08:42:24;50.63;;;30.20;;
40847;SDS011;26570;50.962;5.340;2024-03-07T08:45:10;52.33;;;32.00;;
40847;SDS011;26570;50.962;5.340;2024-03-07T08:47:55;53.97;;;30.23;;
40847;SDS011;26570;50.962;5.340;2024-03-07T08:50:41;54.97;;;31.43;;
40847;SDS011;26570;50.962;5.340;2024-03-07T08:53:27;50.97;;;30.33;;
40847;SDS011;26570;50.962;5.340;2024-03-07T08:56:12;53.10;;;29.97;;
40847;SDS011;26570;50.962;5.340;2024-03-07T08:58:57;54.57;;;31.27;;
40847;SDS011;26570;50.962;5.340;2024-03-07T09:01:42;53.57;;;30.47;;
40847;SDS011;26570;50.962;5.340;2024-03-07T09:04:27;53.73;;;31.00;;
40847;SDS011;26570;50.962;5.340;2024-03-07T09:07:15;55.20;;;31.60;;
40847;SDS011;26570;50.962;5.340;2024-03-07T09:10:02;51.90;;;30.87;;
40847;SDS011;26570;50.962;5.340;2024-03-07T09:12:49;49.60;;;31.80;;
40847;SDS011;26570;50.962;5.340;2024-03-07T09:15:36;50.83;;;31.60;;
40847;SDS011;26570;50.962;5.340;2024-03-07T09:18:21;51.20;;;31.33;;
40847;SDS011;26570;50.962;5.340;2024-03-07T09:21:08;54.97;;;30.97;;
40847;SDS011;26570;50.962;5.340;2024-03-07T09:24:15;44.20;;;29.00;;
40847;SDS011;26570;50.962;5.340;2024-03-07T09:27:01;51.20;;;29.97;;
40847;SDS011;26570;50.962;5.340;2024-03-07T09:29:46;48.73;;;28.20;;
40847;SDS011;26570;50.962;5.340;2024-03-07T09:32:54;53.37;;;29.63;;
40847;SDS011;26570;50.962;5.340;2024-03-07T09:35:39;46.20;;;28.37;;
40847;SDS011;26570;50.962;5.340;2024-03-07T09:38:25;49.53;;;29.67;;
40847;SDS011;26570;50.962;5.340;2024-03-07T09:41:12;45.67;;;28.87;;
40847;SDS011;26570;50.962;5.340;2024-03-07T09:44:01;46.67;;;28.37;;
40847;SDS011;26570;50.962;5.340;2024-03-07T09:46:47;50.53;;;28.60;;
40847;SDS011;26570;50.962;5.340;2024-03-07T09:49:34;46.93;;;29.37;;
40847;SDS011;26570;50.962;5.340;2024-03-07T09:52:22;46.37;;;28.73;;
40847;SDS011;26570;50.962;5.340;2024-03-07T09:55:10;46.20;;;29.00;;
40847;SDS011;26570;50.962;5.340;2024-03-07T09:57:55;57.23;;;31.00;;
40847;SDS011;26570;50.962;5.340;2024-03-07T10:00:45;48.60;;;29.23;;
40847;SDS011;26570;50.962;5.340;2024-03-07T10:03:34;49.23;;;29.13;;
40847;SDS011;26570;50.962;5.340;2024-03-07T10:06:20;46.03;;;29.50;;
40847;SDS011;26570;50.962;5.340;2024-03-07T10:09:28;46.97;;;29.07;;
40847;SDS011;26570;50.962;5.340;2024-03-07T10:12:16;45.80;;;28.77;;
40847;SDS011;26570;50.962;5.340;2024-03-07T10:15:03;45.23;;;29.03;;
40847;SDS011;26570;50.962;5.340;2024-03-07T10:20:42;48.83;;;28.47;;
40847;SDS011;26570;50.962;5.340;2024-03-07T10:23:29;44.83;;;27.73;;
40847;SDS011;26570;50.962;5.340;2024-03-07T10:26:15;46.13;;;28.80;;
40847;SDS011;26570;50.962;5.340;2024-03-07T10:29:01;48.20;;;29.13;;
40847;SDS011;26570;50.962;5.340;2024-03-07T10:31:50;47.30;;;28.67;;
40847;SDS011;26570;50.962;5.340;2024-03-07T10:34:58;48.13;;;29.47;;
40847;SDS011;26570;50.962;5.340;2024-03-07T10:41:27;45.90;;;28.83;;
40847;SDS011;26570;50.962;5.340;2024-03-07T10:44:25;45.63;;;29.47;;
40847;SDS011;26570;50.962;5.340;2024-03-07T10:47:31;47.40;;;30.23;;
40847;SDS011;26570;50.962;5.340;2024-03-07T10:57:30;51.63;;;29.60;;
40847;SDS011;26570;50.962;5.340;2024-03-07T11:00:27;47.70;;;29.50;;
40847;SDS011;26570;50.962;5.340;2024-03-07T11:03:20;48.63;;;30.80;;
40847;SDS011;26570;50.962;5.340;2024-03-07T11:06:06;53.17;;;32.07;;
40847;SDS011;26570;50.962;5.340;2024-03-07T11:08:55;50.07;;;30.90;;
40847;SDS011;26570;50.962;5.340;2024-03-07T11:11:45;49.37;;;30.87;;
40847;SDS011;26570;50.962;5.340;2024-03-07T11:14:31;48.70;;;29.93;;
40847;SDS011;26570;50.962;5.340;2024-03-07T11:17:20;48.13;;;28.77;;
40847;SDS011;26570;50.962;5.340;2024-03-07T11:20:36;49.63;;;29.97;;
40847;SDS011;26570;50.962;5.340;2024-03-07T11:23:51;46.50;;;27.23;;
40847;SDS011;26570;50.962;5.340;2024-03-07T11:29:43;40.23;;;25.17;;
40847;SDS011;26570;50.962;5.340;2024-03-07T11:32:37;39.03;;;24.77;;
40847;SDS011;26570;50.962;5.340;2024-03-07T11:35:32;37.90;;;23.23;;
40847;SDS011;26570;50.962;5.340;2024-03-07T11:38:31;40.83;;;24.13;;
40847;SDS011;26570;50.962;5.340;2024-03-07T11:41:44;39.20;;;23.00;;
40847;SDS011;26570;50.962;5.340;2024-03-07T11:44:35;35.17;;;22.73;;
40847;SDS011;26570;50.962;5.340;2024-03-07T11:47:34;36.33;;;23.07;;
40847;SDS011;26570;50.962;5.340;2024-03-07T11:50:26;35.70;;;23.57;;
40847;SDS011;26570;50.962;5.340;2024-03-07T11:53:12;33.23;;;21.13;;
40847;SDS011;26570;50.962;5.340;2024-03-07T11:55:57;35.47;;;21.30;;
40847;SDS011;26570;50.962;5.340;2024-03-07T11:58:43;29.00;;;19.10;;
40847;SDS011;26570;50.962;5.340;2024-03-07T12:01:30;31.00;;;19.67;;
40847;SDS011;26570;50.962;5.340;2024-03-07T12:04:48;31.23;;;20.03;;
40847;SDS011;26570;50.962;5.340;2024-03-07T12:07:58;32.43;;;18.60;;
40847;SDS011;26570;50.962;5.340;2024-03-07T12:10:47;30.60;;;19.33;;
40847;SDS011;26570;50.962;5.340;2024-03-07T12:13:56;31.98;;;19.70;;
40847;SDS011;26570;50.962;5.340;2024-03-07T12:17:14;31.37;;;19.03;;
40847;SDS011;26570;50.962;5.340;2024-03-07T12:20:02;35.43;;;20.20;;
40847;SDS011;26570;50.962;5.340;2024-03-07T12:23:08;31.03;;;19.27;;
40847;SDS011;26570;50.962;5.340;2024-03-07T12:29:57;29.00;;;17.60;;
40847;SDS011;26570;50.962;5.340;2024-03-07T12:32:49;28.03;;;17.57;;
40847;SDS011;26570;50.962;5.340;2024-03-07T12:35:56;28.53;;;18.23;;
40847;SDS011;26570;50.962;5.340;2024-03-07T12:38:54;26.65;;;16.88;;
40847;SDS011;26570;50.962;5.340;2024-03-07T12:41:48;25.67;;;17.43;;
40847;SDS011;26570;50.962;5.340;2024-03-07T12:44:40;26.20;;;17.17;;
40847;SDS011;26570;50.962;5.340;2024-03-07T12:50:52;27.43;;;17.93;;
40847;SDS011;26570;50.962;5.340;2024-03-07T12:53:37;29.60;;;18.87;;
40847;SDS011;26570;50.962;5.340;2024-03-07T12:56:26;28.03;;;18.83;;
40847;SDS011;26570;50.962;5.340;2024-03-07T12:59:11;28.03;;;18.27;;
40847;SDS011;26570;50.962;5.340;2024-03-07T13:02:19;26.70;;;18.53;;
40847;SDS011;26570;50.962;5.340;2024-03-07T13:05:42;27.87;;;18.27;;
40847;SDS011;26570;50.962;5.340;2024-03-07T13:08:46;34.03;;;18.53;;
40847;SDS011;26570;50.962;5.340;2024-03-07T13:11:35;28.52;;;18.00;;
40847;SDS011;26570;50.962;5.340;2024-03-07T13:14:56;31.23;;;18.43;;
40847;SDS011;26570;50.962;5.340;2024-03-07T13:17:45;28.63;;;18.70;;
40847;SDS011;26570;50.962;5.340;2024-03-07T13:20:42;29.03;;;17.53;;
40847;SDS011;26570;50.962;5.340;2024-03-07T13:24:04;29.10;;;17.97;;
40847;SDS011;26570;50.962;5.340;2024-03-07T13:26:56;29.70;;;18.23;;
40847;SDS011;26570;50.962;5.340;2024-03-07T13:30:13;25.07;;;17.50;;
40847;SDS011;26570;50.962;5.340;2024-03-07T13:33:29;28.60;;;17.63;;
40847;SDS011;26570;50.962;5.340;2024-03-07T13:36:36;28.10;;;17.67;;
40847;SDS011;26570;50.962;5.340;2024-03-07T13:39:30;25.97;;;17.30;;
40847;SDS011;26570;50.962;5.340;2024-03-07T13:42:15;30.80;;;18.23;;
40847;SDS011;26570;50.962;5.340;2024-03-07T13:45:04;31.43;;;18.73;;
40847;SDS011;26570;50.962;5.340;2024-03-07T13:48:33;33.93;;;16.20;;
40847;SDS011;26570;50.962;5.340;2024-03-07T13:51:21;30.17;;;16.80;;
40847;SDS011;26570;50.962;5.340;2024-03-07T13:54:06;34.87;;;16.57;;
40847;SDS011;26570;50.962;5.340;2024-03-07T14:00:35;28.83;;;16.40;;
40847;SDS011;26570;50.962;5.340;2024-03-07T14:03:41;27.10;;;16.60;;
40847;SDS011;26570;50.962;5.340;2024-03-07T14:16:50;25.05;;;14.48;;
40847;SDS011;26570;50.962;5.340;2024-03-07T14:23:45;27.30;;;15.00;;
40847;SDS011;26570;50.962;5.340;2024-03-07T14:34:43;25.20;;;15.00;;
40847;SDS011;26570;50.962;5.340;2024-03-07T14:37:38;21.67;;;13.40;;
40847;SDS011;26570;50.962;5.340;2024-03-07T14:40:43;23.57;;;14.97;;
40847;SDS011;26570;50.962;5.340;2024-03-07T14:43:36;22.73;;;13.90;;
40847;SDS011;26570;50.962;5.340;2024-03-07T14:46:25;22.23;;;13.77;;
40847;SDS011;26570;50.962;5.340;2024-03-07T14:49:12;21.47;;;12.90;;
40847;SDS011;26570;50.962;5.340;2024-03-07T14:52:27;19.57;;;11.33;;
40847;SDS011;26570;50.962;5.340;2024-03-07T14:55:13;17.97;;;11.70;;
40847;SDS011;26570;50.962;5.340;2024-03-07T14:57:59;16.63;;;11.27;;
40847;SDS011;26570;50.962;5.340;2024-03-07T15:00:44;16.20;;;10.47;;
40847;SDS011;26570;50.962;5.340;2024-03-07T15:03:47;18.50;;;10.87;;
40847;SDS011;26570;50.962;5.340;2024-03-07T15:06:38;18.97;;;10.80;;
40847;SDS011;26570;50.962;5.340;2024-03-07T15:09:24;15.33;;;10.10;;
40847;SDS011;26570;50.962;5.340;2024-03-07T15:12:12;16.63;;;9.93;;
40847;SDS011;26570;50.962;5.340;2024-03-07T15:14:58;15.70;;;10.40;;
40847;SDS011;26570;50.962;5.340;2024-03-07T15:17:43;16.73;;;11.03;;
40847;SDS011;26570;50.962;5.340;2024-03-07T15:20:29;17.80;;;11.23;;
40847;SDS011;26570;50.962;5.340;2024-03-07T15:23:15;18.40;;;9.80;;
40847;SDS011;26570;50.962;5.340;2024-03-07T15:26:00;18.57;;;11.50;;
40847;SDS011;26570;50.962;5.340;2024-03-07T15:29:11;16.13;;;10.77;;
40847;SDS011;26570;50.962;5.340;2024-03-07T15:31:57;22.47;;;12.83;;
40847;SDS011;26570;50.962;5.340;2024-03-07T15:35:07;22.57;;;13.83;;
40847;SDS011;26570;50.962;5.340;2024-03-07T15:37:56;21.77;;;13.67;;
40847;SDS011;26570;50.962;5.340;2024-03-07T15:40:44;24.10;;;13.43;;
40847;SDS011;26570;50.962;5.340;2024-03-07T15:43:32;21.50;;;13.57;;
40847;SDS011;26570;50.962;5.340;2024-03-07T15:46:17;21.17;;;12.83;;
40847;SDS011;26570;50.962;5.340;2024-03-07T15:49:02;21.27;;;13.50;;
40847;SDS011;26570;50.962;5.340;2024-03-07T15:51:48;23.70;;;11.97;;
40847;SDS011;26570;50.962;5.340;2024-03-07T15:54:35;22.47;;;12.67;;
40847;SDS011;26570;50.962;5.340;2024-03-07T15:57:23;23.30;;;14.17;;
40847;SDS011;26570;50.962;5.340;2024-03-07T16:00:08;19.83;;;12.63;;
40847;SDS011;26570;50.962;5.340;2024-03-07T16:07:02;18.13;;;12.13;;
40847;SDS011;26570;50.962;5.340;2024-03-07T16:09:47;20.97;;;12.60;;
40847;SDS011;26570;50.962;5.340;2024-03-07T16:12:54;19.13;;;12.60;;
40847;SDS011;26570;50.962;5.340;2024-03-07T16:16:14;23.93;;;12.30;;
40847;SDS011;26570;50.962;5.340;2024-03-07T16:18:59;19.20;;;12.77;;
40847;SDS011;26570;50.962;5.340;2024-03-07T16:21:45;21.20;;;12.00;;
40847;SDS011;26570;50.962;5.340;2024-03-07T16:24:33;17.67;;;10.73;;
40847;SDS011;26570;50.962;5.340;2024-03-07T16:27:27;20.90;;;11.70;;
40847;SDS011;26570;50.962;5.340;2024-03-07T16:30:18;20.50;;;11.67;;
40847;SDS011;26570;50.962;5.340;2024-03-07T16:33:05;19.97;;;11.47;;
40847;SDS011;26570;50.962;5.340;2024-03-07T16:35:50;21.07;;;11.47;;
40847;SDS011;26570;50.962;5.340;2024-03-07T16:38:35;21.40;;;11.20;;
40847;SDS011;26570;50.962;5.340;2024-03-07T16:45:59;21.83;;;12.77;;
40847;SDS011;26570;50.962;5.340;2024-03-07T16:48:46;21.87;;;13.13;;
40847;SDS011;26570;50.962;5.340;2024-03-07T16:51:30;21.33;;;11.73;;
40847;SDS011;26570;50.962;5.340;2024-03-07T16:54:15;21.13;;;11.53;;
40847;SDS011;26570;50.962;5.340;2024-03-07T16:57:00;23.07;;;11.97;;
40847;SDS011;26570;50.962;5.340;2024-03-07T16:59:46;17.13;;;11.53;;
40847;SDS011;26570;50.962;5.340;2024-03-07T17:02:32;20.60;;;11.37;;
40847;SDS011;26570;50.962;5.340;2024-03-07T17:05:18;17.23;;;10.43;;
40847;SDS011;26570;50.962;5.340;2024-03-07T17:08:03;21.20;;;11.87;;
40847;SDS011;26570;50.962;5.340;2024-03-07T17:10:49;21.13;;;11.30;;
40847;SDS011;26570;50.962;5.340;2024-03-07T17:13:36;21.57;;;11.90;;
40847;SDS011;26570;50.962;5.340;2024-03-07T17:16:23;20.83;;;11.57;;
40847;SDS011;26570;50.962;5.340;2024-03-07T17:23:42;21.77;;;11.60;;
40847;SDS011;26570;50.962;5.340;2024-03-07T17:26:53;22.43;;;10.37;;
40847;SDS011;26570;50.962;5.340;2024-03-07T17:29:39;19.70;;;11.10;;
40847;SDS011;26570;50.962;5.340;2024-03-07T17:32:24;20.77;;;10.73;;
40847;SDS011;26570;50.962;5.340;2024-03-07T17:35:10;21.27;;;13.57;;
40847;SDS011;26570;50.962;5.340;2024-03-07T17:37:58;25.57;;;14.53;;